createdAt,value
2022-11-15T04:27:14.449Z,74.39
2022-11-15T04:30:06.114Z,74.35
2022-11-15T04:32:54.540Z,74.08
2022-11-15T04:35:44.513Z,74.07
2022-11-15T04:38:35.543Z,73.94
2022-11-15T04:41:23.915Z,74.20
2022-11-15T04:44:16.052Z,74.21
2022-11-15T04:47:08.094Z,74.47
2022-11-15T04:49:58.239Z,74.12
2022-11-15T04:52:55.540Z,74.28
2022-11-15T04:55:48.720Z,74.37
2022-11-15T04:58:38.451Z,74.57
2022-11-15T05:01:28.507Z,74.62
2022-11-15T05:04:22.289Z,74.68
2022-11-15T05:07:12.199Z,74.75
2022-11-15T05:10:01.766Z,74.88
2022-11-15T05:12:50.842Z,74.75
2022-11-15T05:15:39.932Z,74.94
2022-11-15T05:18:29.299Z,74.74
2022-11-15T05:21:19.255Z,74.74
2022-11-15T05:24:12.529Z,74.94
2022-11-15T05:27:01.904Z,74.93
2022-11-15T05:29:51.798Z,75.24
2022-11-15T05:32:41.537Z,75.12
2022-11-15T05:35:41.600Z,75.19
2022-11-15T05:38:31.898Z,75.37
2022-11-15T05:41:24.069Z,75.81
2022-11-15T05:44:15.171Z,76.08
2022-11-15T05:47:06.506Z,76.02
2022-11-15T05:49:56.645Z,74.97
2022-11-15T05:52:47.810Z,74.77
2022-11-15T05:55:40.685Z,74.83
2022-11-15T05:58:32.280Z,75.07
2022-11-15T06:01:22.599Z,74.72
2022-11-15T06:04:12.079Z,74.85
2022-11-15T06:07:02.647Z,74.87
2022-11-15T06:09:52.549Z,74.62
2022-11-15T06:12:42.095Z,74.60
2022-11-15T06:15:34.956Z,75.09
2022-11-15T06:18:24.946Z,75.09
2022-11-15T06:21:14.255Z,75.41
2022-11-15T06:24:03.644Z,75.03
2022-11-15T06:26:53.835Z,75.09
2022-11-15T06:29:42.878Z,75.10
2022-11-15T06:32:32.748Z,75.23
2022-11-15T06:35:22.279Z,75.24
2022-11-15T06:38:12.464Z,75.01
2022-11-15T06:41:08.285Z,75.05
2022-11-15T06:44:01.992Z,75.25
2022-11-15T06:46:53.401Z,75.29
2022-11-15T06:49:42.188Z,74.55
2022-11-15T06:52:33.847Z,74.02
2022-11-15T06:55:22.603Z,74.48
2022-11-15T06:58:12.019Z,74.83
2022-11-15T07:01:06.909Z,74.75
2022-11-15T07:03:57.364Z,74.64
2022-11-15T07:06:49.444Z,74.05
2022-11-15T07:09:39.080Z,74.11
2022-11-15T07:12:28.791Z,74.29
2022-11-15T07:15:20.079Z,74.07
2022-11-15T07:18:10.159Z,73.89
2022-11-15T07:21:03.547Z,73.96
2022-11-15T07:23:53.354Z,74.14
2022-11-15T07:26:42.985Z,72.92
2022-11-15T07:29:33.218Z,73.15
2022-11-15T07:32:22.381Z,72.97
2022-11-15T07:35:11.576Z,73.21
2022-11-15T07:38:03.399Z,73.06
2022-11-15T07:40:59.467Z,72.73
2022-11-15T07:43:47.786Z,71.98
2022-11-15T07:46:37.791Z,72.20
2022-11-15T07:49:26.929Z,72.00
2022-11-15T07:52:16.758Z,71.78
2022-11-15T07:55:06.750Z,72.05
2022-11-15T07:58:02.134Z,71.98
2022-11-15T08:00:51.639Z,71.80
2022-11-15T08:03:41.183Z,71.11
2022-11-15T08:06:30.556Z,71.45
2022-11-15T08:09:20.092Z,71.03
2022-11-15T08:12:10.002Z,71.15
2022-11-15T08:15:00.172Z,70.25
2022-11-15T08:17:54.973Z,70.42
2022-11-15T08:20:45.328Z,69.86
2022-11-15T08:23:35.185Z,69.92
2022-11-15T08:26:26.303Z,68.98
2022-11-15T08:29:16.075Z,67.92
2022-11-15T08:32:04.636Z,68.62
2022-11-15T08:34:54.818Z,67.98
2022-11-15T08:37:44.526Z,67.29
2022-11-15T08:40:34.020Z,67.08
2022-11-15T08:43:23.703Z,66.35
2022-11-15T08:46:15.097Z,66.13
2022-11-15T08:49:04.815Z,65.89
2022-11-15T08:51:54.815Z,65.20
2022-11-15T08:54:44.815Z,65.01
2022-11-15T08:57:35.184Z,64.89
2022-11-15T09:00:23.633Z,64.37
2022-11-15T09:03:12.678Z,64.50
2022-11-15T09:06:03.198Z,64.11
2022-11-15T09:08:52.746Z,63.48
2022-11-15T09:11:42.881Z,63.58
2022-11-15T09:14:31.284Z,63.72
2022-11-15T09:17:24.738Z,63.54
2022-11-15T09:20:15.590Z,63.51
2022-11-15T09:23:05.518Z,62.71
2022-11-15T09:25:54.701Z,62.55
2022-11-15T09:28:44.369Z,62.64
2022-11-15T09:31:34.312Z,62.73
2022-11-15T09:34:24.012Z,61.93
2022-11-15T09:37:13.693Z,61.40
2022-11-15T09:40:03.004Z,61.14
2022-11-15T09:43:10.172Z,61.26
2022-11-15T09:46:05.569Z,61.31
2022-11-15T09:48:58.519Z,61.50
2022-11-15T09:51:56.433Z,60.82
2022-11-15T09:54:56.600Z,61.02
2022-11-15T09:57:46.568Z,59.94
2022-11-15T10:00:50.463Z,60.07
2022-11-15T10:03:43.046Z,59.89
2022-11-15T10:06:26.581Z,59.07
2022-11-15T10:09:06.149Z,58.80
2022-11-15T10:11:39.594Z,58.89
2022-11-15T10:14:26.211Z,59.12
2022-11-15T10:17:27.040Z,58.72
2022-11-15T10:20:15.123Z,58.49
2022-11-15T10:22:48.988Z,58.31
2022-11-15T10:25:29.025Z,58.65
2022-11-15T10:28:11.168Z,58.11
2022-11-15T10:30:51.145Z,57.78
2022-11-15T10:33:36.148Z,56.87
2022-11-15T10:36:15.180Z,57.23
2022-11-15T10:38:51.526Z,57.34
2022-11-15T10:41:33.329Z,56.46
2022-11-15T10:44:13.622Z,56.10
2022-11-15T10:46:48.185Z,55.74
2022-11-15T10:49:23.918Z,56.05
2022-11-15T10:51:59.939Z,55.44
2022-11-15T10:54:42.892Z,55.68
2022-11-15T10:57:21.692Z,55.06
2022-11-15T11:00:07.056Z,54.86
2022-11-15T11:02:47.462Z,55.09
2022-11-15T11:05:42.208Z,54.27
2022-11-15T11:08:15.824Z,54.21
2022-11-15T11:11:01.939Z,54.20
2022-11-15T11:13:41.263Z,53.61
2022-11-15T11:16:21.166Z,53.40
2022-11-15T11:19:31.162Z,54.18
2022-11-15T11:22:27.704Z,53.50
2022-11-15T11:25:30.933Z,53.61
2022-11-15T11:28:04.300Z,53.99
2022-11-15T11:31:11.567Z,53.63
2022-11-15T11:33:46.444Z,54.30
2022-11-15T11:36:34.874Z,53.35
2022-11-15T11:39:20.459Z,53.88
2022-11-15T11:42:06.195Z,53.74
2022-11-15T11:44:52.999Z,53.63
2022-11-15T11:47:41.292Z,53.56
2022-11-15T11:50:21.185Z,53.34
2022-11-15T11:53:19.617Z,53.49
2022-11-15T11:55:58.943Z,53.26
2022-11-15T11:58:43.333Z,53.43
2022-11-15T12:01:26.946Z,53.64
2022-11-15T12:04:06.486Z,53.28
2022-11-15T12:07:05.747Z,53.56
2022-11-15T12:10:17.542Z,53.88
2022-11-15T12:13:18.661Z,54.51
2022-11-15T12:16:11.299Z,54.61
2022-11-15T12:18:51.728Z,54.71
2022-11-15T12:21:43.907Z,54.83
2022-11-15T12:24:28.079Z,55.12
2022-11-15T12:27:25.096Z,54.67
2022-11-15T12:30:02.844Z,54.78
2022-11-15T12:32:39.058Z,54.66
2022-11-15T12:35:39.148Z,54.56
2022-11-15T12:38:14.332Z,54.41
2022-11-15T12:41:15.466Z,54.19
2022-11-15T12:43:48.826Z,54.56
2022-11-15T12:46:25.891Z,54.83
2022-11-15T12:48:59.264Z,55.32
2022-11-15T12:51:45.199Z,55.19
2022-11-15T12:54:23.210Z,55.18
2022-11-15T12:57:04.787Z,55.31
2022-11-15T13:00:12.266Z,55.18
2022-11-15T13:02:46.744Z,55.05
2022-11-15T13:05:17.704Z,55.29
2022-11-15T13:07:51.113Z,55.85
2022-11-15T13:10:32.589Z,56.38
2022-11-15T13:13:05.045Z,56.35
2022-11-15T13:15:55.806Z,56.49
2022-11-15T13:18:39.573Z,56.40
2022-11-15T13:21:45.299Z,56.82
2022-11-15T13:24:18.343Z,57.16
2022-11-15T13:26:47.994Z,57.21
2022-11-15T13:29:21.054Z,57.58
2022-11-15T13:31:51.915Z,58.31
2022-11-15T13:37:21.359Z,58.22
2022-11-15T13:39:52.627Z,58.13
2022-11-15T13:42:23.233Z,57.99
2022-11-15T13:45:03.112Z,58.25
2022-11-15T13:47:33.989Z,58.48
2022-11-15T13:50:09.676Z,59.31
2022-11-15T13:52:45.154Z,59.25
2022-11-15T13:55:23.272Z,59.75
2022-11-15T13:57:56.092Z,60.03
2022-11-15T14:00:29.369Z,60.41
2022-11-15T14:03:07.434Z,60.69
2022-11-15T14:05:37.003Z,60.83
2022-11-15T14:08:25.278Z,61.24
2022-11-15T14:11:21.382Z,61.48
2022-11-15T14:14:09.797Z,61.55
2022-11-15T14:16:41.999Z,61.75
2022-11-15T14:19:33.778Z,61.95
2022-11-15T14:22:14.864Z,62.13
2022-11-15T14:24:47.739Z,62.93
2022-11-15T14:27:19.873Z,63.25
2022-11-15T14:29:50.868Z,63.28
2022-11-15T14:32:32.144Z,63.78
2022-11-15T14:35:04.210Z,64.35
2022-11-15T14:37:38.274Z,64.02
2022-11-15T14:40:11.145Z,64.05
2022-11-15T14:42:41.134Z,64.00
2022-11-15T14:45:23.914Z,64.43
2022-11-15T14:47:53.013Z,64.37
2022-11-15T14:50:24.443Z,64.81
2022-11-15T14:52:54.724Z,65.55
2022-11-15T14:55:33.380Z,66.66
2022-11-15T14:58:05.199Z,66.83
2022-11-15T15:00:38.672Z,67.09
2022-11-15T15:03:09.713Z,67.31
2022-11-15T15:05:44.488Z,68.16
2022-11-15T15:08:14.414Z,68.58
2022-11-15T15:10:46.927Z,69.51
2022-11-15T15:13:25.078Z,69.89
2022-11-15T15:15:55.247Z,70.35
2022-11-15T15:18:24.865Z,70.45
2022-11-15T15:21:01.341Z,70.72
2022-11-15T15:23:34.530Z,70.59
2022-11-15T15:26:05.994Z,70.87
2022-11-15T15:28:37.382Z,70.82
2022-11-15T15:31:07.303Z,70.78
2022-11-15T15:33:37.272Z,70.96
2022-11-15T15:36:07.080Z,71.27
2022-11-15T15:38:36.508Z,71.56
2022-11-15T15:41:05.993Z,72.10
2022-11-15T15:43:36.921Z,72.44
2022-11-15T15:46:11.853Z,72.66
2022-11-15T15:48:42.222Z,73.07
2022-11-15T15:51:18.726Z,73.70
2022-11-15T15:53:49.989Z,73.80
2022-11-15T15:56:19.628Z,74.14
2022-11-15T15:58:53.312Z,74.85
2022-11-15T16:01:23.380Z,75.32
2022-11-15T16:03:52.160Z,75.52
2022-11-15T16:06:40.642Z,75.04
2022-11-15T16:09:17.035Z,74.90
2022-11-15T16:11:48.648Z,75.09
2022-11-15T16:14:18.210Z,75.36
2022-11-15T16:16:48.221Z,75.47
2022-11-15T16:19:17.875Z,75.83
2022-11-15T16:21:47.858Z,76.01
2022-11-15T16:24:17.435Z,76.22
2022-11-15T16:26:48.618Z,76.54
2022-11-15T16:29:18.980Z,76.49
2022-11-15T16:31:49.216Z,76.53
2022-11-15T16:34:19.209Z,76.34
2022-11-15T16:36:48.109Z,76.58
2022-11-15T16:39:19.901Z,76.60
2022-11-15T16:41:50.041Z,76.84
2022-11-15T16:44:20.102Z,76.87
2022-11-15T16:46:52.422Z,76.67
2022-11-15T16:49:22.359Z,76.57
2022-11-15T16:51:52.009Z,76.82
2022-11-15T16:54:20.959Z,76.76
2022-11-15T16:56:51.070Z,76.44
2022-11-15T16:59:21.647Z,76.47
2022-11-15T17:01:51.581Z,76.14
2022-11-15T17:04:23.154Z,75.96
2022-11-15T17:06:53.532Z,76.47
2022-11-15T17:09:25.132Z,76.33
2022-11-15T17:11:54.979Z,76.38
2022-11-15T17:14:23.895Z,76.79
2022-11-15T17:16:57.811Z,76.75
2022-11-15T17:19:28.400Z,76.60
2022-11-15T17:21:57.349Z,76.76
2022-11-15T17:24:27.604Z,76.37
2022-11-15T17:26:57.594Z,76.48
2022-11-15T17:29:27.798Z,76.79
2022-11-15T17:31:57.877Z,76.76
2022-11-15T17:34:27.496Z,76.29
2022-11-15T17:36:57.273Z,76.54
2022-11-15T17:39:26.299Z,76.62
2022-11-15T17:41:55.405Z,76.59
2022-11-15T17:44:29.595Z,76.51
2022-11-15T17:46:59.818Z,76.51
2022-11-15T17:49:29.238Z,76.35
2022-11-15T17:51:59.617Z,76.39
2022-11-15T17:54:30.053Z,76.20
2022-11-15T17:57:00.571Z,76.18
2022-11-15T17:59:30.355Z,75.99
2022-11-15T18:02:01.024Z,75.97
2022-11-15T18:04:31.277Z,75.80
2022-11-15T18:07:01.402Z,75.95
2022-11-15T18:09:31.543Z,75.75
2022-11-15T18:12:00.472Z,76.09
2022-11-15T18:14:30.901Z,75.98
2022-11-15T18:16:59.874Z,75.87
2022-11-15T18:19:31.989Z,75.81
2022-11-15T18:22:04.808Z,75.87
2022-11-15T18:24:38.788Z,75.99
2022-11-15T18:27:09.132Z,76.28
2022-11-15T18:29:39.479Z,76.23
2022-11-15T18:32:12.861Z,76.02
2022-11-15T18:34:43.823Z,75.92
2022-11-15T18:37:12.725Z,75.96
2022-11-15T18:39:43.202Z,75.67
2022-11-15T18:42:12.039Z,75.84
2022-11-15T18:44:42.521Z,75.80
2022-11-15T18:47:12.150Z,75.98
2022-11-15T18:49:41.521Z,75.85
2022-11-15T18:52:11.675Z,75.55
2022-11-15T18:54:41.700Z,75.86
2022-11-15T18:57:11.366Z,75.85
2022-11-15T18:59:42.778Z,75.83
2022-11-15T19:02:13.497Z,75.61
2022-11-15T19:04:43.310Z,75.63
2022-11-15T19:07:13.441Z,75.33
2022-11-15T19:09:43.475Z,75.23
2022-11-15T19:12:13.499Z,75.65
2022-11-15T19:14:43.823Z,75.73
2022-11-15T19:17:14.227Z,75.51
2022-11-15T19:19:44.245Z,76.00
2022-11-15T19:22:14.231Z,75.91
2022-11-15T19:24:43.934Z,76.17
2022-11-15T19:27:13.513Z,75.75
2022-11-15T19:29:42.985Z,75.86
2022-11-15T19:32:13.064Z,75.76
2022-11-15T19:34:43.266Z,76.19
2022-11-15T19:37:12.981Z,76.75
2022-11-15T19:39:42.862Z,77.33
2022-11-15T19:42:13.016Z,77.60
2022-11-15T19:44:43.137Z,78.30
2022-11-15T19:47:12.889Z,78.23
2022-11-15T19:49:43.829Z,78.31
2022-11-15T19:52:13.874Z,78.28
2022-11-15T19:54:43.858Z,78.04
2022-11-15T19:57:14.168Z,77.98
2022-11-15T19:59:44.535Z,78.18
2022-11-15T20:02:14.508Z,78.40
2022-11-15T20:04:43.675Z,78.57
2022-11-15T20:07:13.347Z,78.38
2022-11-15T20:09:44.089Z,78.40
2022-11-15T20:12:14.133Z,78.66
2022-11-15T20:14:46.448Z,79.04
2022-11-15T20:17:16.426Z,79.00
2022-11-15T20:19:46.506Z,79.37
2022-11-15T20:22:16.550Z,79.55
2022-11-15T20:24:46.604Z,79.28
2022-11-15T20:27:16.756Z,79.17
2022-11-15T20:29:46.707Z,79.42
2022-11-15T20:32:16.920Z,79.58
2022-11-15T20:34:51.451Z,79.32
2022-11-15T20:37:24.710Z,79.24
2022-11-15T20:39:55.117Z,78.99
2022-11-15T20:42:26.457Z,78.77
2022-11-15T20:44:56.695Z,78.93
2022-11-15T20:47:30.102Z,79.07
2022-11-15T20:50:20.873Z,79.41
2022-11-15T20:52:52.097Z,79.67
2022-11-15T20:55:22.123Z,79.97
2022-11-15T20:57:52.491Z,79.97
2022-11-15T21:00:27.603Z,79.77
2022-11-15T21:02:57.555Z,79.89
2022-11-15T21:05:29.069Z,79.86
2022-11-15T21:07:59.432Z,79.67
2022-11-15T21:10:49.488Z,79.85
2022-11-15T21:13:19.945Z,79.74
2022-11-15T21:15:50.035Z,79.72
2022-11-15T21:18:19.995Z,79.82
2022-11-15T21:20:50.929Z,79.52
2022-11-15T21:23:21.447Z,79.52
2022-11-15T21:25:53.484Z,79.50
2022-11-15T21:28:24.453Z,79.31
2022-11-15T21:30:56.833Z,79.38
2022-11-15T21:33:30.729Z,79.61
2022-11-15T21:36:01.813Z,79.39
2022-11-15T21:38:32.673Z,79.36
2022-11-15T21:41:06.752Z,79.23
2022-11-15T21:43:36.711Z,79.16
2022-11-15T21:46:07.592Z,79.27
2022-11-15T21:48:37.954Z,79.12
2022-11-15T21:51:10.887Z,78.81
2022-11-15T21:53:41.731Z,79.12
2022-11-15T21:56:14.309Z,78.97
2022-11-15T21:58:43.741Z,78.72
2022-11-15T22:01:33.120Z,78.93
2022-11-15T22:04:03.585Z,78.79
2022-11-15T22:06:34.645Z,78.88
2022-11-15T22:09:05.707Z,78.43
2022-11-15T22:11:36.198Z,78.56
2022-11-15T22:14:06.435Z,78.32
2022-11-15T22:16:38.069Z,78.35
2022-11-15T22:19:08.488Z,77.87
2022-11-15T22:21:40.294Z,78.13
2022-11-15T22:24:10.407Z,78.09
2022-11-15T22:26:40.315Z,78.30
2022-11-15T22:29:10.415Z,78.05
2022-11-15T22:31:42.600Z,77.87
2022-11-15T22:34:12.464Z,77.65
2022-11-15T22:37:13.143Z,77.68
2022-11-15T22:39:36.238Z,77.56
2022-11-15T22:42:06.615Z,77.44
2022-11-15T22:44:37.054Z,77.29
2022-11-15T22:47:05.943Z,77.11
2022-11-15T22:49:37.119Z,77.07
2022-11-15T22:52:07.477Z,77.21
2022-11-15T22:54:37.843Z,76.95
2022-11-15T22:57:08.359Z,76.82
2022-11-15T22:59:38.781Z,76.73
2022-11-15T23:02:09.363Z,76.29
2022-11-15T23:04:39.833Z,76.47
2022-11-15T23:07:11.014Z,76.58
2022-11-15T23:09:41.717Z,76.50
2022-11-15T23:12:44.608Z,76.70
2022-11-15T23:15:14.526Z,75.92
2022-11-15T23:17:44.460Z,75.83
2022-11-15T23:20:36.880Z,76.29
2022-11-15T23:23:05.149Z,76.76
2022-11-15T23:25:34.552Z,76.26
2022-11-15T23:28:05.819Z,76.61
2022-11-15T23:30:56.905Z,76.83
2022-11-15T23:33:57.570Z,76.89
2022-11-15T23:36:29.865Z,76.67
2022-11-15T23:39:02.405Z,76.53
2022-11-15T23:41:31.406Z,76.20
2022-11-15T23:44:01.641Z,76.43
2022-11-15T23:46:32.668Z,76.18
2022-11-15T23:49:03.399Z,76.26
2022-11-15T23:51:34.232Z,75.84
2022-11-15T23:54:04.738Z,75.35
2022-11-15T23:56:35.493Z,75.35
2022-11-15T23:59:06.576Z,75.16
